Surface/Precipitation History
09/18/2020 16:05  to  9/19/2020 16:05
Change End Date:
Date/Time
(MDT)
Sf
Temp Chem Water Layer Surface Precipitation
Sfc Pvt Sub Frz Factor Pct Dpth DpthThk IcePct Cond Salin FI Type Intens Accum Rate
09/19/2020 15:50 Trace Moisture 52.9F - 53F - 5 - - - - 0 mhos 0 - None None - -
09/19/2020 15:46 Trace Moisture 52.5F - 53F - 5 - - - - 0 mhos 0 - None None - -
09/19/2020 15:36 Trace Moisture 53.8F - 53F - 5 - - - - 0 mhos 1 - None None - -
09/19/2020 15:25 Trace Moisture 55.4F - 55F - 5 - - - - 0 mhos 3 - None None - -
09/19/2020 15:19 Trace Moisture 54.0F - 54F - 5 - - - - 0 mhos 4 - None None - -
09/19/2020 15:15 Trace Moisture 54.1F - 54F - 5 - - - - 0 mhos 4 - None None - -
09/19/2020 15:05 Trace Moisture 55.4F - 55F - 5 - - - - 0 mhos 5 - None None - -
09/19/2020 14:55 Trace Moisture 54.5F - 55F - 5 - - - - 0 mhos 6 - None None - -
09/19/2020 14:48 Trace Moisture 53.6F - 53F - 5 - - - - 0 mhos 5 - None None - -
09/19/2020 14:45 Trace Moisture 54.5F - 54F - 5 - - - - 0 mhos 4 - None None - -
09/19/2020 14:35 Trace Moisture 55.9F - 56F - 5 - - - - 0 mhos 6 - None None - -
09/19/2020 14:25 Trace Moisture 56.1F - 56F - 5 - - - - 0 mhos 6 - None None - -
09/19/2020 14:17 Trace Moisture 58.3F - 58F - 5 - - - - 0 mhos 6 - None None - -
09/19/2020 14:15 Trace Moisture 58.3F - 58F - 5 - - - - 0 mhos 6 - None None - -
09/19/2020 14:05 Trace Moisture 53.1F - 53F - 5 - - - - 0 mhos 5 - None None - -
Date/Time
(MDT)
Sf
Temp Chem Water Layer Surface Precipitation
Sfc Pvt Sub Frz Factor Pct Dpth DpthThk IcePct Cond Salin FI Type Intens Accum Rate
09/19/2020 13:55 Trace Moisture 53.8F - 54F - 5 - - - - 0 mhos 5 - None None - -
09/19/2020 13:46 Trace Moisture 53.8F - 54F - 5 - - - - 0 mhos 4 - None None - -
09/19/2020 13:45 Trace Moisture 53.8F - 54F - 5 - - - - 0 mhos 4 - None None - -
09/19/2020 13:35 Trace Moisture 54.5F - 55F - 5 - - - - 0 mhos 4 - None None - -
09/19/2020 13:25 Trace Moisture 55.9F - 56F - 5 - - - - 0 mhos 1 - None None - -
09/19/2020 13:15 Dry 61.9F - 62F - - - - - - 0 mhos 0 - None None - -
09/19/2020 13:15 Dry 63.3F - 63F - - - - - - 0 mhos 0 - None None - -
09/19/2020 13:05 Dry 68.2F - 68F - - - - - - 0 mhos 0 - None None - -
09/19/2020 12:54 Dry 64.4F - 65F - - - - - - 0 mhos 0 - None None - -
09/19/2020 12:44 Dry 60.4F - 60F - - - - - - 0 mhos 0 - None None - -
09/19/2020 12:44 Dry 60.4F - 60F - - - - - - 0 mhos 0 - None None - -
09/19/2020 12:34 Dry 59.7F - 60F - - - - - - 0 mhos 0 - None None - -
09/19/2020 12:24 Dry 59.4F - 59F - - - - - - 0 mhos 0 - None None - -
09/19/2020 12:14 Dry 59.5F - 60F - - - - - - 0 mhos 0 - None None - -
09/19/2020 12:13 Trace Moisture 60.1F - 60F - 5 - - - - 0 mhos 0 - None None - -
Date/Time
(MDT)
Sf
Temp Chem Water Layer Surface Precipitation
Sfc Pvt Sub Frz Factor Pct Dpth DpthThk IcePct Cond Salin FI Type Intens Accum Rate
09/19/2020 12:04 Trace Moisture 56.5F - 56F - 5 - - - - 0 mhos 0 - None None - -
09/19/2020 11:54 Trace Moisture 57.7F - 58F - 5 - - - - 0 mhos 2 - None None - -
09/19/2020 11:44 Trace Moisture 60.1F - 59F - 5 - - - - 0 mhos 4 - None None - -
09/19/2020 11:42 Trace Moisture 61.0F - 61F - 5 - - - - 0 mhos 4 - None None - -
09/19/2020 11:34 Trace Moisture 57.4F - 58F - 5 - - - - 0 mhos 4 - None None - -
09/19/2020 11:24 Trace Moisture 54.7F - 55F - 5 - - - - 0 mhos 5 - None None - -
09/19/2020 11:14 Trace Moisture 54.5F - 55F - 5 - - - - 0 mhos 5 - None None - -
09/19/2020 11:11 Trace Moisture 54.1F - 54F - 5 - - - - 0 mhos 4 - None None - -
09/19/2020 11:04 Trace Moisture 53.4F - 53F - 5 - - - - 0 mhos 4 - None None - -
09/19/2020 10:54 Trace Moisture 52.0F - 52F - 5 - - - - 0 mhos 4 - None None - -
09/19/2020 10:44 Trace Moisture 51.6F - 52F - 5 - - - - 0 mhos 4 - None None - -
09/19/2020 10:40 Trace Moisture 51.4F - 51F - 5 - - - - 0 mhos 4 - None None - -
09/19/2020 10:34 Trace Moisture 51.6F - 52F - 5 - - - - 0 mhos 2 - None None - -
09/19/2020 10:23 Trace Moisture 52.0F - 52F - 5 - - - - 0 mhos 3 - None None - -
09/19/2020 10:13 Trace Moisture 50.9F - 51F - 5 - - - - 0 mhos 3 - None None - -
Date/Time
(MDT)
Sf
Temp Chem Water Layer Surface Precipitation
Sfc Pvt Sub Frz Factor Pct Dpth DpthThk IcePct Cond Salin FI Type Intens Accum Rate
09/19/2020 10:09 Trace Moisture 50.9F - 51F - 5 - - - - 0 mhos 3 - None None - -
09/19/2020 10:03 Trace Moisture 50.9F - 51F - 5 - - - - 0 mhos 4 - None None - -
09/19/2020 09:53 Trace Moisture 50.7F - 51F - 5 - - - - 0 mhos 5 - None None - -
09/19/2020 09:43 Trace Moisture 51.1F - 51F - 5 - - - - 0 mhos 5 - None None - -
09/19/2020 09:38 Trace Moisture 51.3F - 51F - 5 - - - - 0 mhos 5 - None None - -
09/19/2020 09:33 Trace Moisture 51.3F - 51F - 5 - - - - 0 mhos 5 - None None - -
09/19/2020 09:23 Trace Moisture 51.1F - 51F - 5 - - - - 0 mhos 4 - None None - -
09/19/2020 09:13 Trace Moisture 50.9F - 51F - 5 - - - - 0 mhos 9 - None None - -
09/19/2020 09:07 Trace Moisture 50.4F - 50F - 5 - - - - 0 mhos 2 - None None - -
09/19/2020 09:03 Trace Moisture 50.4F - 50F - 5 - - - - 0 mhos 2 - None None - -
09/19/2020 08:53 Trace Moisture 50.0F - 50F - 5 - - - - 0 mhos 2 - None None - -
09/19/2020 08:43 Trace Moisture 49.6F - 49F - 5 - - - - 0 mhos 3 - None None - -
09/19/2020 08:36 Trace Moisture 49.8F - 50F - 5 - - - - 0 mhos 4 - None None - -
09/19/2020 08:33 Trace Moisture 50.2F - 50F - 5 - - - - 0 mhos 4 - None None - -
09/19/2020 08:23 Trace Moisture 50.0F - 50F - 5 - - - - 0 mhos 4 - None None - -
Date/Time
(MDT)
Sf
Temp Chem Water Layer Surface Precipitation
Sfc Pvt Sub Frz Factor Pct Dpth DpthThk IcePct Cond Salin FI Type Intens Accum Rate
09/19/2020 08:13 Trace Moisture 50.0F - 50F - 5 - - - - 0 mhos 3 - None None - -
09/19/2020 08:05 Trace Moisture 50.2F - 50F - 5 - - - - 0 mhos 3 - None None - -
09/19/2020 08:02 Trace Moisture 50.4F - 50F - 5 - - - - 0 mhos 3 - None None - -
09/19/2020 07:52 Trace Moisture 50.0F - 50F - 5 - - - - 0 mhos 3 - None None - -
09/19/2020 07:42 Trace Moisture 49.6F - 50F - 5 - - - - 0 mhos 3 - None None - -
09/19/2020 07:34 Trace Moisture 49.6F - 50F - 5 - - - - 0 mhos 5 - None None - -
09/19/2020 07:32 Trace Moisture 49.6F - 50F - 5 - - - - 0 mhos 5 - None None - -
09/19/2020 07:22 Trace Moisture 49.8F - 50F - 5 - - - - 0 mhos 4 - None None - -
09/19/2020 07:12 Trace Moisture 49.8F - 50F - 5 - - - - 0 mhos 6 - None None - -
09/19/2020 07:03 Trace Moisture 50.2F - 50F - 5 - - - - 0 mhos 6 - None None - -
09/19/2020 07:02 Trace Moisture 50.2F - 50F - 5 - - - - 0 mhos 6 - None None - -
09/19/2020 06:52 Trace Moisture 50.4F - 50F - 5 - - - - 0 mhos 7 - None None - -
09/19/2020 06:42 Trace Moisture 50.4F - 50F - 5 - - - - 0 mhos 8 - None None - -
09/19/2020 06:32 Trace Moisture 50.4F - 50F - 5 - - - - 0 mhos 9 - None None - -
09/19/2020 06:32 Trace Moisture 50.4F - 50F - 5 - - - - 0 mhos 9 - None None - -
Date/Time
(MDT)
Sf
Temp Chem Water Layer Surface Precipitation
Sfc Pvt Sub Frz Factor Pct Dpth DpthThk IcePct Cond Salin FI Type Intens Accum Rate
09/19/2020 06:22 Trace Moisture 50.2F - 50F - 5 - - - - 0 mhos 10 - None None - -
09/19/2020 06:12 Trace Moisture 50.2F - 50F - 5 - - - - 0 mhos 10 - None None - -
09/19/2020 06:02 Trace Moisture 50.2F - 50F - 5 - - - - 0 mhos 11 - None None - -
09/19/2020 06:01 Trace Moisture 50.0F - 50F - 5 - - - - 0 mhos 11 - None None - -
09/19/2020 05:52 Trace Moisture 50.2F - 50F - 5 - - - - 0 mhos 16 - None None - -
09/19/2020 05:42 Trace Moisture 50.4F - 50F - 5 - - - - 0 mhos 19 - None None - -
09/19/2020 05:32 Trace Moisture 50.4F - 50F - 5 - - - - 0 mhos 20 - None None - -
09/19/2020 05:30 Trace Moisture 50.4F - 50F - 5 - - - - 0 mhos 20 - None None - -
09/19/2020 05:21 Trace Moisture 50.5F - 50F - 10 - - - - 0 mhos 13 - None None - -
09/19/2020 05:11 Trace Moisture 50.7F - 51F - 5 - - - - 0 mhos 0 - None None - -
09/19/2020 05:01 Trace Moisture 50.5F - 50F - 5 - - - - 0 mhos 0 - None None - -
09/19/2020 04:51 Trace Moisture 51.1F - 51F - 5 - - - - 0 mhos 1 - None None - -
09/19/2020 04:41 Trace Moisture 51.4F - 51F - 5 - - - - 0 mhos 1 - None None - -
09/19/2020 04:31 Trace Moisture 51.6F - 52F - 5 - - - - 0 mhos 1 - None None - -
09/19/2020 04:28 Trace Moisture 51.8F - 52F - 5 - - - - 0 mhos 1 - None None - -
Date/Time
(MDT)
Sf
Temp Chem Water Layer Surface Precipitation
Sfc Pvt Sub Frz Factor Pct Dpth DpthThk IcePct Cond Salin FI Type Intens Accum Rate
09/19/2020 04:21 Trace Moisture 52.0F - 52F - 5 - - - - 0 mhos 1 - None None - -
09/19/2020 04:11 Dry 52.5F - 52F - - - - - - 0 mhos 0 - None None - -
09/19/2020 04:01 Dry 52.7F - 53F - - - - - - 0 mhos 0 - None None - -
09/19/2020 03:51 Trace Moisture 53.4F - 53F - 5 - - - - 0 mhos 1 - None None - -
09/19/2020 03:41 Dry 54.5F - 55F - - - - - - 0 mhos 0 - None None - -
09/19/2020 03:31 Dry 54.5F - 54F - - - - - - 0 mhos 0 - None None - -
09/19/2020 03:30 Dry 54.5F - 54F - - - - - - 0 mhos 0 - None None - -
09/19/2020 03:21 Dry 54.7F - 55F - - - - - - 0 mhos 0 - None None - -
09/19/2020 03:11 Dry 54.3F - 54F - - - - - - 0 mhos 0 - None None - -
09/19/2020 03:01 Dry 54.1F - 54F - - - - - - 0 mhos 0 - None None - -
09/19/2020 02:51 Dry 53.8F - 54F - - - - - - 0 mhos 0 - None None - -
09/19/2020 02:40 Dry 53.4F - 53F - - - - - - 0 mhos 0 - None None - -
09/19/2020 02:34 Dry 53.1F - 53F - - - - - - 0 mhos 0 - None None - -
09/19/2020 02:30 Dry 52.9F - 53F - - - - - - 0 mhos 0 - None None - -
09/19/2020 02:20 Dry 53.1F - 53F - - - - - - 0 mhos 0 - None None - -
Date/Time
(MDT)
Sf
Temp Chem Water Layer Surface Precipitation
Sfc Pvt Sub Frz Factor Pct Dpth DpthThk IcePct Cond Salin FI Type Intens Accum Rate
09/19/2020 02:10 Dry 53.4F - 53F - - - - - - 0 mhos 0 - None None - -
09/19/2020 02:00 Dry 54.0F - 54F - - - - - - 0 mhos 0 - None None - -
09/19/2020 01:50 Dry 54.7F - 55F - - - - - - 0 mhos 0 - None None - -
09/19/2020 01:40 Dry 55.0F - 55F - - - - - - 0 mhos 0 - None None - -
09/19/2020 01:37 Dry 54.9F - 55F - - - - - - 0 mhos 0 - None None - -
09/19/2020 01:30 Dry 55.2F - 55F - - - - - - 0 mhos 0 - None None - -
09/19/2020 01:20 Dry 55.2F - 55F - - - - - - 0 mhos 0 - None None - -
09/19/2020 01:10 Dry 55.4F - 55F - - - - - - 0 mhos 0 - None None - -
09/19/2020 01:00 Dry 56.1F - 56F - - - - - - 0 mhos 1 - None None - -
09/19/2020 00:50 Dry 57.2F - 57F - - - - - - 0 mhos 0 - None None - -
09/19/2020 00:40 Dry 57.2F - 57F - - - - - - 0 mhos 0 - None None - -
09/19/2020 00:39 Dry 57.2F - 57F - - - - - - 0 mhos 0 - None None - -
09/19/2020 00:30 Dry 57.2F - 57F - - - - - - 0 mhos 0 - None None - -
09/19/2020 00:20 Dry 57.2F - 57F - - - - - - 0 mhos 0 - None None - -
09/19/2020 00:09 Dry 57.2F - 57F - - - - - - 0 mhos 0 - None None - -
Date/Time
(MDT)
Sf
Temp Chem Water Layer Surface Precipitation
Sfc Pvt Sub Frz Factor Pct Dpth DpthThk IcePct Cond Salin FI Type Intens Accum Rate
09/18/2020 23:59 Dry 57.4F - 57F - - - - - - 0 mhos 0 - None None - -
09/18/2020 23:49 Dry 57.9F - 58F - - - - - - 0 mhos 0 - None None - -
09/18/2020 23:43 Dry 57.9F - 58F - - - - - - 0 mhos 0 - None None - -
09/18/2020 23:39 Dry 58.1F - 58F - - - - - - 0 mhos 0 - None None - -
09/18/2020 23:29 Dry 58.3F - 58F - - - - - - 0 mhos 0 - None None - -
09/18/2020 23:19 Dry 58.6F - 59F - - - - - - 0 mhos 0 - None None - -
09/18/2020 23:09 Dry 59.0F - 59F - - - - - - 0 mhos 0 - None None - -
09/18/2020 22:59 Dry 59.4F - 59F - - - - - - 0 mhos 0 - None None - -
09/18/2020 22:49 Dry 59.7F - 60F - - - - - - 0 mhos 0 - None None - -
09/18/2020 22:45 Dry 59.7F - 60F - - - - - - 0 mhos 0 - None None - -
09/18/2020 22:39 Dry 60.3F - 60F - - - - - - 0 mhos 0 - None None - -
09/18/2020 22:29 Dry 60.4F - 60F - - - - - - 0 mhos 0 - None None - -
09/18/2020 22:19 Dry 60.8F - 61F - - - - - - 0 mhos 0 - None None - -
09/18/2020 22:09 Dry 60.8F - 61F - - - - - - 0 mhos 0 - None None - -
09/18/2020 21:59 Dry 61.2F - 61F - - - - - - 0 mhos 0 - None None - -
Date/Time
(MDT)
Sf
Temp Chem Water Layer Surface Precipitation
Sfc Pvt Sub Frz Factor Pct Dpth DpthThk IcePct Cond Salin FI Type Intens Accum Rate
09/18/2020 21:49 Dry 61.2F - 61F - - - - - - 0 mhos 0 - None None - -
09/18/2020 21:48 Dry 61.2F - 61F - - - - - - 0 mhos 0 - None None - -
09/18/2020 21:38 Dry 61.2F - 61F - - - - - - 0 mhos 0 - None None - -
09/18/2020 21:28 Dry 61.3F - 61F - - - - - - 0 mhos 0 - None None - -
09/18/2020 21:18 Dry 61.5F - 61F - - - - - - 0 mhos 0 - None None - -
09/18/2020 21:08 Dry 61.7F - 62F - - - - - - 0 mhos 0 - None None - -
09/18/2020 20:58 Dry 61.9F - 62F - - - - - - 0 mhos 0 - None None - -
09/18/2020 20:52 Dry 61.9F - 62F - - - - - - 0 mhos 0 - None None - -
09/18/2020 20:48 Dry 61.9F - 62F - - - - - - 0 mhos 0 - None None - -
09/18/2020 20:38 Dry 62.1F - 62F - - - - - - 0 mhos 0 - None None - -
09/18/2020 20:28 Dry 62.2F - 62F - - - - - - 0 mhos 0 - None None - -
09/18/2020 20:18 Dry 62.6F - 62F - - - - - - 0 mhos 0 - None None - -
09/18/2020 20:08 Dry 62.8F - 63F - - - - - - 0 mhos 0 - None None - -
09/18/2020 19:58 Dry 63.1F - 63F - - - - - - 0 mhos 0 - None None - -
09/18/2020 19:54 Dry 63.1F - 63F - - - - - - 0 mhos 0 - None None - -
Date/Time
(MDT)
Sf
Temp Chem Water Layer Surface Precipitation
Sfc Pvt Sub Frz Factor Pct Dpth DpthThk IcePct Cond Salin FI Type Intens Accum Rate
09/18/2020 19:48 Dry 63.3F - 63F - - - - - - 0 mhos 0 - None None - -
09/18/2020 19:38 Dry 63.7F - 64F - - - - - - 0 mhos 0 - None None - -
09/18/2020 19:28 Dry 64.0F - 64F - - - - - - 0 mhos 0 - None None - -
09/18/2020 19:18 Dry 64.4F - 64F - - - - - - 0 mhos 0 - None None - -
09/18/2020 19:08 Dry 64.9F - 65F - - - - - - 0 mhos 0 - None None - -
09/18/2020 18:58 Dry 65.5F - 65F - - - - - - 0 mhos 0 - None None - -
09/18/2020 18:47 Dry 66.0F - 66F - - - - - - 0 mhos 0 - None None - -
09/18/2020 18:37 Dry 66.4F - 66F - - - - - - 0 mhos 0 - None None - -
09/18/2020 18:27 Dry 67.3F - 67F - - - - - - 0 mhos 0 - None None - -
09/18/2020 18:17 Dry 68.0F - 68F - - - - - - 0 mhos 0 - None None - -
09/18/2020 18:07 Dry 68.4F - 68F - - - - - - 0 mhos 0 - None None - -
09/18/2020 18:00 Dry 68.9F - 69F - - - - - - 0 mhos 0 - None None - -
09/18/2020 17:57 Dry 69.3F - 69F - - - - - - 0 mhos 0 - None None - -
09/18/2020 17:47 Dry 69.8F - 70F - - - - - - 0 mhos 0 - None None - -
09/18/2020 17:37 Dry 71.1F - 71F - - - - - - 0 mhos 0 - None None - -
Date/Time
(MDT)
Sf
Temp Chem Water Layer Surface Precipitation
Sfc Pvt Sub Frz Factor Pct Dpth DpthThk IcePct Cond Salin FI Type Intens Accum Rate
09/18/2020 17:27 Dry 72.7F - 73F - - - - - - 0 mhos 0 - None None - -
09/18/2020 17:23 Dry 72.5F - 72F - - - - - - 0 mhos 0 - None None - -
09/18/2020 17:17 Dry 72.1F - 72F - - - - - - 0 mhos 0 - None None - -
09/18/2020 17:07 Dry 73.0F - 73F - - - - - - 0 mhos 0 - None None - -
09/18/2020 16:57 Dry 73.4F - 73F - - - - - - 0 mhos 0 - None None - -
09/18/2020 16:52 Dry 73.2F - 73F - - - - - - 0 mhos 0 - None None - -
09/18/2020 16:47 Dry 72.5F - 73F - - - - - - 0 mhos 0 - None None - -
09/18/2020 16:37 Dry 71.8F - 72F - - - - - - 0 mhos 0 - None None - -
09/18/2020 16:27 Dry 71.4F - 71F - - - - - - 0 mhos 0 - None None - -
09/18/2020 16:21 Dry 71.6F - 71F - - - - - - 0 mhos 0 - None None - -
09/18/2020 16:17 Dry 71.8F - 72F - - - - - - 0 mhos 0 - None None - -
09/18/2020 16:07 Dry 72.5F - 72F - - - - - - 0 mhos 0 - None None - -
Change End Date:

Copyright © 1998-2015 Vaisala, Inc.
All Rights Reserved
Send comments about the data to:
SCAN Web ® is a registered trademark of Vaisala, Inc.
SCAN Web Version 6.0